sensor_id;sensor_type;location;lat;lon;timestamp;P1;durP1;ratioP1;P2;durP2;ratioP2
52106;SDS011;38105;52.968;5.974;2023-05-10T00:01:47;10.07;;;9.07;;
52106;SDS011;38105;52.968;5.974;2023-05-10T00:04:13;10.48;;;9.48;;
52106;SDS011;38105;52.968;5.974;2023-05-10T00:06:38;9.68;;;8.75;;
52106;SDS011;38105;52.968;5.974;2023-05-10T00:09:04;12.77;;;9.75;;
52106;SDS011;38105;52.968;5.974;2023-05-10T00:11:30;9.75;;;8.68;;
52106;SDS011;38105;52.968;5.974;2023-05-10T00:13:56;11.55;;;10.35;;
52106;SDS011;38105;52.968;5.974;2023-05-10T00:16:21;11.75;;;10.45;;
52106;SDS011;38105;52.968;5.974;2023-05-10T00:18:47;12.23;;;10.60;;
52106;SDS011;38105;52.968;5.974;2023-05-10T00:21:13;13.23;;;10.77;;
52106;SDS011;38105;52.968;5.974;2023-05-10T00:23:39;10.25;;;9.23;;
52106;SDS011;38105;52.968;5.974;2023-05-10T00:26:04;12.00;;;10.50;;
52106;SDS011;38105;52.968;5.974;2023-05-10T00:28:30;17.15;;;12.50;;
52106;SDS011;38105;52.968;5.974;2023-05-10T00:30:56;14.35;;;11.70;;
52106;SDS011;38105;52.968;5.974;2023-05-10T00:33:21;11.25;;;10.20;;
52106;SDS011;38105;52.968;5.974;2023-05-10T00:35:47;13.52;;;11.65;;
52106;SDS011;38105;52.968;5.974;2023-05-10T00:38:13;12.93;;;11.63;;
52106;SDS011;38105;52.968;5.974;2023-05-10T00:40:39;12.55;;;11.23;;
52106;SDS011;38105;52.968;5.974;2023-05-10T00:43:05;12.40;;;10.80;;
52106;SDS011;38105;52.968;5.974;2023-05-10T00:45:32;15.85;;;12.90;;
52106;SDS011;38105;52.968;5.974;2023-05-10T00:48:00;18.33;;;13.57;;
52106;SDS011;38105;52.968;5.974;2023-05-10T00:50:28;13.25;;;11.65;;
52106;SDS011;38105;52.968;5.974;2023-05-10T00:52:55;19.02;;;13.90;;
52106;SDS011;38105;52.968;5.974;2023-05-10T00:55:22;16.75;;;12.68;;
52106;SDS011;38105;52.968;5.974;2023-05-10T00:57:48;15.82;;;12.75;;
52106;SDS011;38105;52.968;5.974;2023-05-10T01:00:14;15.65;;;12.40;;
52106;SDS011;38105;52.968;5.974;2023-05-10T01:02:43;17.52;;;13.25;;
52106;SDS011;38105;52.968;5.974;2023-05-10T01:05:10;14.00;;;12.18;;
52106;SDS011;38105;52.968;5.974;2023-05-10T01:07:36;15.38;;;13.02;;
52106;SDS011;38105;52.968;5.974;2023-05-10T01:10:02;14.88;;;12.27;;
52106;SDS011;38105;52.968;5.974;2023-05-10T01:12:27;15.98;;;13.32;;
52106;SDS011;38105;52.968;5.974;2023-05-10T01:14:53;12.18;;;10.98;;
52106;SDS011;38105;52.968;5.974;2023-05-10T01:17:20;10.60;;;8.93;;
52106;SDS011;38105;52.968;5.974;2023-05-10T01:19:46;10.68;;;9.50;;
52106;SDS011;38105;52.968;5.974;2023-05-10T01:22:17;10.48;;;8.77;;
52106;SDS011;38105;52.968;5.974;2023-05-10T01:33:40;12.32;;;7.93;;
52106;SDS011;38105;52.968;5.974;2023-05-10T01:39:02;10.55;;;7.65;;
52106;SDS011;38105;52.968;5.974;2023-05-10T01:41:55;9.85;;;8.07;;
52106;SDS011;38105;52.968;5.974;2023-05-10T01:47:31;11.52;;;8.63;;
52106;SDS011;38105;52.968;5.974;2023-05-10T01:50:04;13.70;;;10.15;;
52106;SDS011;38105;52.968;5.974;2023-05-10T01:52:38;14.70;;;10.05;;
52106;SDS011;38105;52.968;5.974;2023-05-10T01:55:08;16.40;;;11.00;;
52106;SDS011;38105;52.968;5.974;2023-05-10T01:57:35;8.55;;;7.32;;
52106;SDS011;38105;52.968;5.974;2023-05-10T02:00:04;14.38;;;8.93;;
52106;SDS011;38105;52.968;5.974;2023-05-10T02:02:35;10.07;;;8.05;;
52106;SDS011;38105;52.968;5.974;2023-05-10T02:05:03;10.10;;;7.32;;
52106;SDS011;38105;52.968;5.974;2023-05-10T02:07:31;10.25;;;7.30;;
52106;SDS011;38105;52.968;5.974;2023-05-10T02:10:00;8.68;;;7.30;;
52106;SDS011;38105;52.968;5.974;2023-05-10T02:12:31;9.63;;;7.82;;
52106;SDS011;38105;52.968;5.974;2023-05-10T02:14:59;9.38;;;6.90;;
52106;SDS011;38105;52.968;5.974;2023-05-10T02:17:27;8.60;;;6.60;;
52106;SDS011;38105;52.968;5.974;2023-05-10T02:19:54;9.52;;;7.20;;
52106;SDS011;38105;52.968;5.974;2023-05-10T02:22:21;8.00;;;6.47;;
52106;SDS011;38105;52.968;5.974;2023-05-10T02:24:48;8.80;;;6.65;;
52106;SDS011;38105;52.968;5.974;2023-05-10T02:27:15;7.72;;;6.70;;
52106;SDS011;38105;52.968;5.974;2023-05-10T02:29:42;6.68;;;5.78;;
52106;SDS011;38105;52.968;5.974;2023-05-10T02:32:09;8.35;;;6.57;;
52106;SDS011;38105;52.968;5.974;2023-05-10T02:34:36;9.38;;;6.60;;
52106;SDS011;38105;52.968;5.974;2023-05-10T02:37:03;7.75;;;6.95;;
52106;SDS011;38105;52.968;5.974;2023-05-10T02:39:30;8.85;;;7.95;;
52106;SDS011;38105;52.968;5.974;2023-05-10T02:41:57;9.00;;;7.72;;
52106;SDS011;38105;52.968;5.974;2023-05-10T02:44:23;9.38;;;8.02;;
52106;SDS011;38105;52.968;5.974;2023-05-10T02:46:52;7.90;;;7.10;;
52106;SDS011;38105;52.968;5.974;2023-05-10T02:49:20;7.25;;;6.55;;
52106;SDS011;38105;52.968;5.974;2023-05-10T02:51:47;7.22;;;6.53;;
52106;SDS011;38105;52.968;5.974;2023-05-10T02:54:20;7.65;;;6.95;;
52106;SDS011;38105;52.968;5.974;2023-05-10T02:56:53;6.43;;;5.82;;
52106;SDS011;38105;52.968;5.974;2023-05-10T02:59:23;6.20;;;5.22;;
52106;SDS011;38105;52.968;5.974;2023-05-10T03:01:48;7.70;;;6.00;;
52106;SDS011;38105;52.968;5.974;2023-05-10T03:04:14;8.13;;;6.70;;
52106;SDS011;38105;52.968;5.974;2023-05-10T03:06:40;6.93;;;6.32;;
52106;SDS011;38105;52.968;5.974;2023-05-10T03:09:06;7.13;;;6.45;;
52106;SDS011;38105;52.968;5.974;2023-05-10T03:14:42;6.93;;;6.40;;
52106;SDS011;38105;52.968;5.974;2023-05-10T03:20:31;9.50;;;8.40;;
52106;SDS011;38105;52.968;5.974;2023-05-10T03:25:51;8.18;;;6.97;;
52106;SDS011;38105;52.968;5.974;2023-05-10T03:28:17;7.30;;;6.60;;
52106;SDS011;38105;52.968;5.974;2023-05-10T03:30:45;7.28;;;6.68;;
52106;SDS011;38105;52.968;5.974;2023-05-10T03:33:11;6.57;;;5.97;;
52106;SDS011;38105;52.968;5.974;2023-05-10T03:35:38;5.70;;;5.20;;
52106;SDS011;38105;52.968;5.974;2023-05-10T03:38:03;6.75;;;6.15;;
52106;SDS011;38105;52.968;5.974;2023-05-10T03:40:29;6.25;;;5.57;;
52106;SDS011;38105;52.968;5.974;2023-05-10T03:42:57;6.55;;;5.60;;
52106;SDS011;38105;52.968;5.974;2023-05-10T03:45:23;5.85;;;5.25;;
52106;SDS011;38105;52.968;5.974;2023-05-10T03:47:49;5.32;;;4.93;;
52106;SDS011;38105;52.968;5.974;2023-05-10T03:50:14;5.60;;;5.00;;
52106;SDS011;38105;52.968;5.974;2023-05-10T03:52:40;5.65;;;5.10;;
52106;SDS011;38105;52.968;5.974;2023-05-10T03:55:06;8.10;;;6.07;;
52106;SDS011;38105;52.968;5.974;2023-05-10T03:57:32;7.78;;;6.80;;
52106;SDS011;38105;52.968;5.974;2023-05-10T03:59:58;6.30;;;5.70;;
52106;SDS011;38105;52.968;5.974;2023-05-10T04:02:24;5.25;;;4.75;;
52106;SDS011;38105;52.968;5.974;2023-05-10T04:04:50;7.95;;;7.18;;
52106;SDS011;38105;52.968;5.974;2023-05-10T04:07:16;7.07;;;6.47;;
52106;SDS011;38105;52.968;5.974;2023-05-10T04:09:41;6.93;;;6.32;;
52106;SDS011;38105;52.968;5.974;2023-05-10T04:12:07;7.90;;;7.28;;
52106;SDS011;38105;52.968;5.974;2023-05-10T04:14:33;6.45;;;5.95;;
52106;SDS011;38105;52.968;5.974;2023-05-10T04:16:58;8.15;;;7.45;;
52106;SDS011;38105;52.968;5.974;2023-05-10T04:19:28;7.28;;;6.57;;
52106;SDS011;38105;52.968;5.974;2023-05-10T04:21:57;6.60;;;5.88;;
52106;SDS011;38105;52.968;5.974;2023-05-10T04:24:23;7.82;;;7.03;;
52106;SDS011;38105;52.968;5.974;2023-05-10T04:26:49;6.35;;;5.75;;
52106;SDS011;38105;52.968;5.974;2023-05-10T04:29:15;7.43;;;6.72;;
52106;SDS011;38105;52.968;5.974;2023-05-10T04:31:40;5.40;;;5.00;;
52106;SDS011;38105;52.968;5.974;2023-05-10T04:34:06;6.97;;;5.95;;
52106;SDS011;38105;52.968;5.974;2023-05-10T04:36:32;6.90;;;6.40;;
52106;SDS011;38105;52.968;5.974;2023-05-10T04:39:00;5.00;;;4.50;;
52106;SDS011;38105;52.968;5.974;2023-05-10T04:41:26;5.38;;;4.88;;
52106;SDS011;38105;52.968;5.974;2023-05-10T04:43:51;4.78;;;4.35;;
52106;SDS011;38105;52.968;5.974;2023-05-10T04:46:17;6.00;;;4.57;;
52106;SDS011;38105;52.968;5.974;2023-05-10T04:48:42;5.70;;;5.15;;
52106;SDS011;38105;52.968;5.974;2023-05-10T04:51:08;7.18;;;5.32;;
52106;SDS011;38105;52.968;5.974;2023-05-10T04:53:34;4.75;;;4.35;;
52106;SDS011;38105;52.968;5.974;2023-05-10T04:55:59;7.80;;;4.95;;
52106;SDS011;38105;52.968;5.974;2023-05-10T04:58:25;6.50;;;5.85;;
52106;SDS011;38105;52.968;5.974;2023-05-10T05:00:51;5.40;;;4.95;;
52106;SDS011;38105;52.968;5.974;2023-05-10T05:03:16;7.35;;;5.70;;
52106;SDS011;38105;52.968;5.974;2023-05-10T05:05:43;5.70;;;5.20;;
52106;SDS011;38105;52.968;5.974;2023-05-10T05:08:09;6.63;;;5.03;;
52106;SDS011;38105;52.968;5.974;2023-05-10T05:10:35;6.38;;;5.80;;
52106;SDS011;38105;52.968;5.974;2023-05-10T05:13:00;6.15;;;5.65;;
52106;SDS011;38105;52.968;5.974;2023-05-10T05:15:26;7.40;;;5.55;;
52106;SDS011;38105;52.968;5.974;2023-05-10T05:17:52;5.40;;;4.90;;
52106;SDS011;38105;52.968;5.974;2023-05-10T05:20:17;6.78;;;5.07;;
52106;SDS011;38105;52.968;5.974;2023-05-10T05:22:44;4.90;;;4.03;;
52106;SDS011;38105;52.968;5.974;2023-05-10T05:25:09;6.47;;;5.43;;
52106;SDS011;38105;52.968;5.974;2023-05-10T05:27:36;4.20;;;3.60;;
52106;SDS011;38105;52.968;5.974;2023-05-10T05:30:02;4.32;;;3.97;;
52106;SDS011;38105;52.968;5.974;2023-05-10T05:32:29;5.65;;;5.15;;
52106;SDS011;38105;52.968;5.974;2023-05-10T05:34:55;6.82;;;6.13;;
52106;SDS011;38105;52.968;5.974;2023-05-10T05:37:21;6.50;;;5.82;;
52106;SDS011;38105;52.968;5.974;2023-05-10T05:39:47;6.95;;;6.25;;
52106;SDS011;38105;52.968;5.974;2023-05-10T05:42:13;7.57;;;6.53;;
52106;SDS011;38105;52.968;5.974;2023-05-10T05:44:39;7.13;;;6.18;;
52106;SDS011;38105;52.968;5.974;2023-05-10T05:47:05;8.00;;;6.22;;
52106;SDS011;38105;52.968;5.974;2023-05-10T05:49:31;7.22;;;6.32;;
52106;SDS011;38105;52.968;5.974;2023-05-10T05:52:01;6.57;;;5.85;;
52106;SDS011;38105;52.968;5.974;2023-05-10T05:54:27;10.48;;;7.65;;
52106;SDS011;38105;52.968;5.974;2023-05-10T05:56:54;8.60;;;7.75;;
52106;SDS011;38105;52.968;5.974;2023-05-10T05:59:20;9.18;;;8.27;;
52106;SDS011;38105;52.968;5.974;2023-05-10T06:01:46;10.68;;;8.80;;
52106;SDS011;38105;52.968;5.974;2023-05-10T06:04:12;8.48;;;7.60;;
52106;SDS011;38105;52.968;5.974;2023-05-10T06:06:38;10.75;;;9.65;;
52106;SDS011;38105;52.968;5.974;2023-05-10T06:09:03;9.70;;;8.68;;
52106;SDS011;38105;52.968;5.974;2023-05-10T06:11:29;10.90;;;9.63;;
52106;SDS011;38105;52.968;5.974;2023-05-10T06:13:57;8.93;;;8.02;;
52106;SDS011;38105;52.968;5.974;2023-05-10T06:16:23;7.78;;;7.00;;
52106;SDS011;38105;52.968;5.974;2023-05-10T06:18:49;8.70;;;7.43;;
52106;SDS011;38105;52.968;5.974;2023-05-10T06:21:15;8.63;;;7.22;;
52106;SDS011;38105;52.968;5.974;2023-05-10T06:23:41;7.90;;;7.20;;
52106;SDS011;38105;52.968;5.974;2023-05-10T06:26:07;9.95;;;8.40;;
52106;SDS011;38105;52.968;5.974;2023-05-10T06:28:32;9.45;;;8.32;;
52106;SDS011;38105;52.968;5.974;2023-05-10T06:30:58;10.23;;;7.97;;
52106;SDS011;38105;52.968;5.974;2023-05-10T06:33:24;8.15;;;7.03;;
52106;SDS011;38105;52.968;5.974;2023-05-10T06:35:50;7.40;;;6.65;;
52106;SDS011;38105;52.968;5.974;2023-05-10T06:38:16;7.22;;;5.72;;
52106;SDS011;38105;52.968;5.974;2023-05-10T06:40:42;7.00;;;5.90;;
52106;SDS011;38105;52.968;5.974;2023-05-10T06:43:08;8.07;;;5.60;;
52106;SDS011;38105;52.968;5.974;2023-05-10T06:45:34;6.93;;;6.22;;
52106;SDS011;38105;52.968;5.974;2023-05-10T06:48:00;6.70;;;5.90;;
52106;SDS011;38105;52.968;5.974;2023-05-10T06:50:26;6.20;;;4.80;;
52106;SDS011;38105;52.968;5.974;2023-05-10T06:52:52;5.82;;;4.78;;
52106;SDS011;38105;52.968;5.974;2023-05-10T06:55:17;4.00;;;3.60;;
52106;SDS011;38105;52.968;5.974;2023-05-10T06:57:43;4.10;;;3.58;;
52106;SDS011;38105;52.968;5.974;2023-05-10T07:00:09;5.22;;;4.45;;
52106;SDS011;38105;52.968;5.974;2023-05-10T07:02:35;4.13;;;3.72;;
52106;SDS011;38105;52.968;5.974;2023-05-10T07:05:01;3.88;;;3.47;;
52106;SDS011;38105;52.968;5.974;2023-05-10T07:07:27;5.53;;;3.97;;
52106;SDS011;38105;52.968;5.974;2023-05-10T07:09:52;8.43;;;4.85;;
52106;SDS011;38105;52.968;5.974;2023-05-10T07:12:18;5.22;;;4.72;;
52106;SDS011;38105;52.968;5.974;2023-05-10T07:14:44;5.97;;;4.80;;
52106;SDS011;38105;52.968;5.974;2023-05-10T07:17:10;4.68;;;3.83;;
52106;SDS011;38105;52.968;5.974;2023-05-10T07:19:36;4.25;;;3.72;;
52106;SDS011;38105;52.968;5.974;2023-05-10T07:22:02;5.30;;;3.47;;
52106;SDS011;38105;52.968;5.974;2023-05-10T07:24:27;4.47;;;4.00;;
52106;SDS011;38105;52.968;5.974;2023-05-10T07:26:53;5.15;;;4.65;;
52106;SDS011;38105;52.968;5.974;2023-05-10T07:29:19;5.72;;;4.35;;
52106;SDS011;38105;52.968;5.974;2023-05-10T07:31:44;4.40;;;4.00;;
52106;SDS011;38105;52.968;5.974;2023-05-10T07:34:10;5.82;;;3.97;;
52106;SDS011;38105;52.968;5.974;2023-05-10T07:36:35;4.47;;;4.07;;
52106;SDS011;38105;52.968;5.974;2023-05-10T07:39:01;5.10;;;4.60;;
52106;SDS011;38105;52.968;5.974;2023-05-10T07:41:27;4.50;;;4.10;;
52106;SDS011;38105;52.968;5.974;2023-05-10T07:43:53;4.78;;;4.15;;
52106;SDS011;38105;52.968;5.974;2023-05-10T07:46:18;4.20;;;3.50;;
52106;SDS011;38105;52.968;5.974;2023-05-10T07:48:47;3.40;;;3.10;;
52106;SDS011;38105;52.968;5.974;2023-05-10T07:51:12;4.25;;;3.83;;
52106;SDS011;38105;52.968;5.974;2023-05-10T07:53:38;3.67;;;3.38;;
52106;SDS011;38105;52.968;5.974;2023-05-10T07:56:23;5.65;;;3.60;;
52106;SDS011;38105;52.968;5.974;2023-05-10T07:58:51;3.40;;;3.10;;
52106;SDS011;38105;52.968;5.974;2023-05-10T08:01:17;5.43;;;3.53;;
52106;SDS011;38105;52.968;5.974;2023-05-10T08:03:43;5.65;;;3.83;;
52106;SDS011;38105;52.968;5.974;2023-05-10T08:06:08;4.22;;;3.83;;
52106;SDS011;38105;52.968;5.974;2023-05-10T08:08:34;5.15;;;3.88;;
52106;SDS011;38105;52.968;5.974;2023-05-10T08:11:00;3.78;;;3.30;;
52106;SDS011;38105;52.968;5.974;2023-05-10T08:13:25;2.92;;;2.60;;
52106;SDS011;38105;52.968;5.974;2023-05-10T08:15:51;2.53;;;2.22;;
52106;SDS011;38105;52.968;5.974;2023-05-10T08:18:18;2.92;;;2.33;;
52106;SDS011;38105;52.968;5.974;2023-05-10T08:20:44;2.97;;;2.13;;
52106;SDS011;38105;52.968;5.974;2023-05-10T08:23:11;2.80;;;2.20;;
52106;SDS011;38105;52.968;5.974;2023-05-10T08:25:38;2.70;;;2.20;;
52106;SDS011;38105;52.968;5.974;2023-05-10T08:28:04;3.47;;;2.53;;
52106;SDS011;38105;52.968;5.974;2023-05-10T08:30:29;2.28;;;2.08;;
52106;SDS011;38105;52.968;5.974;2023-05-10T08:32:55;2.38;;;2.17;;
52106;SDS011;38105;52.968;5.974;2023-05-10T08:35:21;2.85;;;2.17;;
52106;SDS011;38105;52.968;5.974;2023-05-10T08:37:46;2.63;;;2.10;;
52106;SDS011;38105;52.968;5.974;2023-05-10T08:40:12;2.30;;;1.77;;
52106;SDS011;38105;52.968;5.974;2023-05-10T08:42:40;2.83;;;2.40;;
52106;SDS011;38105;52.968;5.974;2023-05-10T08:47:38;2.95;;;2.65;;
52106;SDS011;38105;52.968;5.974;2023-05-10T08:50:04;3.65;;;2.28;;
52106;SDS011;38105;52.968;5.974;2023-05-10T08:52:31;3.47;;;2.90;;
52106;SDS011;38105;52.968;5.974;2023-05-10T08:55:01;3.35;;;2.85;;
52106;SDS011;38105;52.968;5.974;2023-05-10T08:57:28;4.32;;;2.80;;
52106;SDS011;38105;52.968;5.974;2023-05-10T08:59:53;4.20;;;3.00;;
52106;SDS011;38105;52.968;5.974;2023-05-10T09:02:19;6.25;;;2.90;;
52106;SDS011;38105;52.968;5.974;2023-05-10T09:04:46;4.35;;;3.63;;
52106;SDS011;38105;52.968;5.974;2023-05-10T09:07:11;4.60;;;3.30;;
52106;SDS011;38105;52.968;5.974;2023-05-10T09:09:37;4.47;;;3.58;;
52106;SDS011;38105;52.968;5.974;2023-05-10T09:12:03;3.78;;;3.35;;
52106;SDS011;38105;52.968;5.974;2023-05-10T09:14:29;4.13;;;3.72;;
52106;SDS011;38105;52.968;5.974;2023-05-10T09:16:55;4.35;;;3.80;;
52106;SDS011;38105;52.968;5.974;2023-05-10T09:19:21;4.60;;;3.58;;
52106;SDS011;38105;52.968;5.974;2023-05-10T09:21:47;4.20;;;3.80;;
52106;SDS011;38105;52.968;5.974;2023-05-10T09:24:14;4.82;;;3.63;;
52106;SDS011;38105;52.968;5.974;2023-05-10T09:26:46;4.97;;;4.13;;
52106;SDS011;38105;52.968;5.974;2023-05-10T09:29:15;5.15;;;4.40;;
52106;SDS011;38105;52.968;5.974;2023-05-10T09:31:48;4.97;;;4.03;;
52106;SDS011;38105;52.968;5.974;2023-05-10T09:34:29;4.68;;;3.60;;
52106;SDS011;38105;52.968;5.974;2023-05-10T09:36:57;5.78;;;4.22;;
52106;SDS011;38105;52.968;5.974;2023-05-10T09:39:35;4.75;;;4.03;;
52106;SDS011;38105;52.968;5.974;2023-05-10T09:42:03;4.15;;;3.75;;
52106;SDS011;38105;52.968;5.974;2023-05-10T09:44:33;3.75;;;3.33;;
52106;SDS011;38105;52.968;5.974;2023-05-10T09:46:59;4.82;;;3.70;;
52106;SDS011;38105;52.968;5.974;2023-05-10T09:49:26;6.05;;;3.00;;
52106;SDS011;38105;52.968;5.974;2023-05-10T09:52:02;4.18;;;3.70;;
52106;SDS011;38105;52.968;5.974;2023-05-10T09:54:32;4.10;;;3.72;;
52106;SDS011;38105;52.968;5.974;2023-05-10T09:56:59;4.82;;;4.32;;
52106;SDS011;38105;52.968;5.974;2023-05-10T09:59:26;5.03;;;4.03;;
52106;SDS011;38105;52.968;5.974;2023-05-10T10:01:53;4.45;;;3.80;;
52106;SDS011;38105;52.968;5.974;2023-05-10T10:04:22;5.32;;;3.83;;
52106;SDS011;38105;52.968;5.974;2023-05-10T10:06:57;5.40;;;4.00;;
52106;SDS011;38105;52.968;5.974;2023-05-10T10:09:25;5.93;;;3.95;;
52106;SDS011;38105;52.968;5.974;2023-05-10T10:11:51;5.45;;;3.97;;
52106;SDS011;38105;52.968;5.974;2023-05-10T10:14:21;5.32;;;4.10;;
52106;SDS011;38105;52.968;5.974;2023-05-10T10:16:48;3.70;;;3.40;;
52106;SDS011;38105;52.968;5.974;2023-05-10T10:19:16;4.95;;;2.72;;
52106;SDS011;38105;52.968;5.974;2023-05-10T10:21:43;5.50;;;2.75;;
52106;SDS011;38105;52.968;5.974;2023-05-10T10:24:09;3.15;;;2.70;;
52106;SDS011;38105;52.968;5.974;2023-05-10T10:26:35;3.05;;;2.75;;
52106;SDS011;38105;52.968;5.974;2023-05-10T10:31:41;2.70;;;2.50;;
52106;SDS011;38105;52.968;5.974;2023-05-10T10:34:28;4.50;;;3.10;;
52106;SDS011;38105;52.968;5.974;2023-05-10T10:36:55;5.10;;;3.17;;
52106;SDS011;38105;52.968;5.974;2023-05-10T10:39:21;3.65;;;3.22;;
52106;SDS011;38105;52.968;5.974;2023-05-10T10:41:59;6.22;;;3.67;;
52106;SDS011;38105;52.968;5.974;2023-05-10T10:44:25;4.25;;;3.38;;
52106;SDS011;38105;52.968;5.974;2023-05-10T11:00:17;9.80;;;8.57;;
52106;SDS011;38105;52.968;5.974;2023-05-10T11:02:47;12.38;;;9.50;;
52106;SDS011;38105;52.968;5.974;2023-05-10T11:13:38;16.15;;;12.65;;
52106;SDS011;38105;52.968;5.974;2023-05-10T11:18:58;14.23;;;12.25;;
52106;SDS011;38105;52.968;5.974;2023-05-10T11:21:48;16.40;;;13.50;;
52106;SDS011;38105;52.968;5.974;2023-05-10T11:24:36;11.45;;;10.20;;
52106;SDS011;38105;52.968;5.974;2023-05-10T11:27:02;12.05;;;10.38;;
52106;SDS011;38105;52.968;5.974;2023-05-10T11:29:28;13.43;;;11.52;;
52106;SDS011;38105;52.968;5.974;2023-05-10T11:31:53;14.73;;;11.57;;
52106;SDS011;38105;52.968;5.974;2023-05-10T11:34:23;15.15;;;11.85;;
52106;SDS011;38105;52.968;5.974;2023-05-10T11:36:55;13.10;;;11.38;;
52106;SDS011;38105;52.968;5.974;2023-05-10T11:39:25;13.80;;;12.02;;
52106;SDS011;38105;52.968;5.974;2023-05-10T11:41:54;14.60;;;11.98;;
52106;SDS011;38105;52.968;5.974;2023-05-10T11:44:20;15.40;;;11.98;;
52106;SDS011;38105;52.968;5.974;2023-05-10T11:46:46;12.85;;;10.82;;
52106;SDS011;38105;52.968;5.974;2023-05-10T11:49:12;14.50;;;11.68;;
52106;SDS011;38105;52.968;5.974;2023-05-10T11:51:38;12.07;;;10.82;;
52106;SDS011;38105;52.968;5.974;2023-05-10T11:54:08;13.10;;;11.65;;
52106;SDS011;38105;52.968;5.974;2023-05-10T11:56:35;14.68;;;11.95;;
52106;SDS011;38105;52.968;5.974;2023-05-10T11:59:04;13.05;;;11.10;;
52106;SDS011;38105;52.968;5.974;2023-05-10T12:01:30;15.18;;;11.30;;
52106;SDS011;38105;52.968;5.974;2023-05-10T12:03:57;14.98;;;11.32;;
52106;SDS011;38105;52.968;5.974;2023-05-10T12:06:28;12.85;;;10.82;;
52106;SDS011;38105;52.968;5.974;2023-05-10T12:08:56;14.07;;;11.05;;
52106;SDS011;38105;52.968;5.974;2023-05-10T12:11:24;13.68;;;10.50;;
52106;SDS011;38105;52.968;5.974;2023-05-10T12:13:50;12.73;;;10.88;;
52106;SDS011;38105;52.968;5.974;2023-05-10T12:16:18;12.95;;;11.23;;
52106;SDS011;38105;52.968;5.974;2023-05-10T12:18:47;12.82;;;11.43;;
52106;SDS011;38105;52.968;5.974;2023-05-10T12:21:14;15.82;;;12.23;;
52106;SDS011;38105;52.968;5.974;2023-05-10T12:23:40;13.25;;;11.85;;
52106;SDS011;38105;52.968;5.974;2023-05-10T12:26:10;14.50;;;11.50;;
52106;SDS011;38105;52.968;5.974;2023-05-10T12:28:36;11.95;;;10.70;;
52106;SDS011;38105;52.968;5.974;2023-05-10T12:31:02;12.35;;;10.00;;
52106;SDS011;38105;52.968;5.974;2023-05-10T12:33:35;10.95;;;9.73;;
52106;SDS011;38105;52.968;5.974;2023-05-10T12:36:04;10.27;;;9.23;;
52106;SDS011;38105;52.968;5.974;2023-05-10T12:38:34;15.15;;;10.52;;
52106;SDS011;38105;52.968;5.974;2023-05-10T12:41:08;10.13;;;8.73;;
52106;SDS011;38105;52.968;5.974;2023-05-10T12:43:35;11.73;;;9.15;;
52106;SDS011;38105;52.968;5.974;2023-05-10T12:46:11;10.30;;;9.20;;
52106;SDS011;38105;52.968;5.974;2023-05-10T12:48:39;9.68;;;8.73;;
52106;SDS011;38105;52.968;5.974;2023-05-10T12:51:06;10.95;;;9.30;;
52106;SDS011;38105;52.968;5.974;2023-05-10T12:53:37;12.55;;;8.90;;
52106;SDS011;38105;52.968;5.974;2023-05-10T12:56:03;9.65;;;8.60;;
52106;SDS011;38105;52.968;5.974;2023-05-10T12:58:28;9.85;;;8.85;;
52106;SDS011;38105;52.968;5.974;2023-05-10T13:00:54;9.35;;;8.25;;
52106;SDS011;38105;52.968;5.974;2023-05-10T13:03:21;10.63;;;8.30;;
52106;SDS011;38105;52.968;5.974;2023-05-10T13:05:47;8.85;;;7.80;;
52106;SDS011;38105;52.968;5.974;2023-05-10T13:08:13;8.48;;;6.60;;
52106;SDS011;38105;52.968;5.974;2023-05-10T13:10:39;7.72;;;6.63;;
52106;SDS011;38105;52.968;5.974;2023-05-10T13:13:05;9.30;;;7.57;;
52106;SDS011;38105;52.968;5.974;2023-05-10T13:15:32;7.70;;;6.90;;
52106;SDS011;38105;52.968;5.974;2023-05-10T13:17:57;6.90;;;5.97;;
52106;SDS011;38105;52.968;5.974;2023-05-10T13:20:23;6.70;;;6.10;;
52106;SDS011;38105;52.968;5.974;2023-05-10T13:22:50;6.35;;;5.80;;
52106;SDS011;38105;52.968;5.974;2023-05-10T13:25:15;6.68;;;5.95;;
52106;SDS011;38105;52.968;5.974;2023-05-10T13:27:41;6.32;;;5.70;;
52106;SDS011;38105;52.968;5.974;2023-05-10T13:30:08;6.72;;;6.05;;
52106;SDS011;38105;52.968;5.974;2023-05-10T13:32:34;6.93;;;6.18;;
52106;SDS011;38105;52.968;5.974;2023-05-10T13:35:00;7.03;;;5.65;;
52106;SDS011;38105;52.968;5.974;2023-05-10T13:37:28;7.40;;;5.47;;
52106;SDS011;38105;52.968;5.974;2023-05-10T13:39:54;7.18;;;6.20;;
52106;SDS011;38105;52.968;5.974;2023-05-10T13:42:21;5.43;;;4.35;;
52106;SDS011;38105;52.968;5.974;2023-05-10T13:44:47;4.65;;;3.63;;
52106;SDS011;38105;52.968;5.974;2023-05-10T13:47:13;6.30;;;4.95;;
52106;SDS011;38105;52.968;5.974;2023-05-10T13:49:39;7.65;;;5.10;;
52106;SDS011;38105;52.968;5.974;2023-05-10T13:52:05;5.75;;;4.80;;
52106;SDS011;38105;52.968;5.974;2023-05-10T13:54:35;6.32;;;5.22;;
52106;SDS011;38105;52.968;5.974;2023-05-10T13:57:04;5.40;;;4.40;;
52106;SDS011;38105;52.968;5.974;2023-05-10T13:59:30;5.63;;;4.72;;
52106;SDS011;38105;52.968;5.974;2023-05-10T14:01:59;6.10;;;5.22;;
52106;SDS011;38105;52.968;5.974;2023-05-10T14:04:27;5.88;;;5.07;;
52106;SDS011;38105;52.968;5.974;2023-05-10T14:06:54;6.65;;;5.35;;
52106;SDS011;38105;52.968;5.974;2023-05-10T14:09:19;6.28;;;5.68;;
52106;SDS011;38105;52.968;5.974;2023-05-10T14:11:45;7.80;;;4.60;;
52106;SDS011;38105;52.968;5.974;2023-05-10T14:14:11;6.07;;;5.10;;
52106;SDS011;38105;52.968;5.974;2023-05-10T14:16:38;6.00;;;3.97;;
52106;SDS011;38105;52.968;5.974;2023-05-10T14:19:07;5.18;;;3.15;;
52106;SDS011;38105;52.968;5.974;2023-05-10T14:21:33;4.80;;;3.50;;
52106;SDS011;38105;52.968;5.974;2023-05-10T14:23:59;7.25;;;4.25;;
52106;SDS011;38105;52.968;5.974;2023-05-10T14:26:25;7.90;;;4.93;;
52106;SDS011;38105;52.968;5.974;2023-05-10T14:28:51;7.15;;;5.82;;
52106;SDS011;38105;52.968;5.974;2023-05-10T14:31:17;6.05;;;4.72;;
52106;SDS011;38105;52.968;5.974;2023-05-10T14:33:45;4.63;;;3.97;;
52106;SDS011;38105;52.968;5.974;2023-05-10T14:36:13;6.85;;;4.60;;
52106;SDS011;38105;52.968;5.974;2023-05-10T14:38:39;6.85;;;5.20;;
52106;SDS011;38105;52.968;5.974;2023-05-10T14:41:06;7.35;;;6.65;;
52106;SDS011;38105;52.968;5.974;2023-05-10T14:43:32;8.60;;;7.40;;
52106;SDS011;38105;52.968;5.974;2023-05-10T14:45:58;7.15;;;6.45;;
52106;SDS011;38105;52.968;5.974;2023-05-10T14:48:23;11.15;;;7.50;;
52106;SDS011;38105;52.968;5.974;2023-05-10T14:50:49;10.23;;;7.60;;
52106;SDS011;38105;52.968;5.974;2023-05-10T14:53:15;8.40;;;7.60;;
52106;SDS011;38105;52.968;5.974;2023-05-10T14:55:41;9.82;;;8.13;;
52106;SDS011;38105;52.968;5.974;2023-05-10T14:58:07;9.02;;;7.53;;
52106;SDS011;38105;52.968;5.974;2023-05-10T15:00:32;8.50;;;7.15;;
52106;SDS011;38105;52.968;5.974;2023-05-10T15:02:58;8.93;;;7.70;;
52106;SDS011;38105;52.968;5.974;2023-05-10T15:05:24;14.27;;;9.88;;
52106;SDS011;38105;52.968;5.974;2023-05-10T15:07:49;10.63;;;9.05;;
52106;SDS011;38105;52.968;5.974;2023-05-10T15:10:16;13.43;;;10.43;;
52106;SDS011;38105;52.968;5.974;2023-05-10T15:12:42;13.52;;;10.85;;
52106;SDS011;38105;52.968;5.974;2023-05-10T15:15:08;14.88;;;10.57;;
52106;SDS011;38105;52.968;5.974;2023-05-10T15:17:34;14.57;;;11.65;;
52106;SDS011;38105;52.968;5.974;2023-05-10T15:20:00;13.02;;;10.75;;
52106;SDS011;38105;52.968;5.974;2023-05-10T15:22:28;12.20;;;10.63;;
52106;SDS011;38105;52.968;5.974;2023-05-10T15:24:54;11.80;;;10.57;;
52106;SDS011;38105;52.968;5.974;2023-05-10T15:27:19;11.93;;;10.63;;
52106;SDS011;38105;52.968;5.974;2023-05-10T15:29:45;13.30;;;9.40;;
52106;SDS011;38105;52.968;5.974;2023-05-10T15:32:11;11.73;;;9.70;;
52106;SDS011;38105;52.968;5.974;2023-05-10T15:34:37;11.10;;;9.40;;